createdAt,value
2024-02-03T00:00:21.308Z,-2.84
2024-02-03T00:06:23.755Z,-2.53
2024-02-03T00:12:30.548Z,-2.33
2024-02-03T00:18:33.391Z,-1.82
2024-02-03T00:24:36.181Z,-1.77
2024-02-03T00:30:38.605Z,-2.38
2024-02-03T00:36:41.093Z,-1.59
2024-02-03T00:42:44.584Z,-1.90
2024-02-03T00:48:47.191Z,-2.26
2024-02-03T00:54:49.659Z,-1.93
2024-02-03T01:00:52.105Z,-1.95
2024-02-03T01:06:57.523Z,-1.65
2024-02-03T01:12:59.854Z,-1.45
2024-02-03T01:19:01.997Z,-2.16
2024-02-03T01:25:04.788Z,-2.35
2024-02-03T01:31:07.301Z,-1.53
2024-02-03T01:37:09.708Z,-1.90
2024-02-03T01:43:15.147Z,-1.90
2024-02-03T01:49:17.843Z,-2.50
2024-02-03T01:55:21.301Z,-1.92
2024-02-03T02:01:25.617Z,-1.81
2024-02-03T02:07:31.040Z,-1.48
2024-02-03T02:13:34.510Z,-0.81
2024-02-03T02:19:37.114Z,-0.35
2024-02-03T02:25:39.436Z,0.05
2024-02-03T02:31:41.897Z,0.24
2024-02-03T02:37:44.375Z,0.39
2024-02-03T02:43:46.794Z,0.09
2024-02-03T02:49:49.344Z,0.38
2024-02-03T02:55:54.787Z,0.69
2024-02-03T03:01:58.368Z,0.88
2024-02-03T03:08:00.786Z,0.75
2024-02-03T03:14:03.174Z,0.99
2024-02-03T03:20:06.709Z,1.15
2024-02-03T03:26:09.150Z,1.25
2024-02-03T03:32:11.183Z,1.25
2024-02-03T03:38:14.071Z,1.09
2024-02-03T03:44:16.563Z,1.32
2024-02-03T03:50:19.003Z,1.22
2024-02-03T03:56:22.423Z,1.43
2024-02-03T04:02:24.891Z,0.08
2024-02-03T04:08:27.407Z,1.65
2024-02-03T04:14:29.814Z,1.69
2024-02-03T04:20:33.347Z,1.75
2024-02-03T04:26:41.798Z,1.83
2024-02-03T04:32:44.287Z,0.83
2024-02-03T04:38:46.717Z,1.96
2024-02-03T04:44:49.124Z,1.96
2024-02-03T04:50:52.645Z,1.23
2024-02-03T04:56:55.044Z,0.96
2024-02-03T05:03:00.851Z,0.55
2024-02-03T05:09:07.002Z,1.76
2024-02-03T05:15:10.502Z,2.08
2024-02-03T05:21:13.029Z,1.27
2024-02-03T05:27:15.424Z,-0.09
2024-02-03T05:33:25.230Z,2.09
2024-02-03T05:39:33.465Z,2.13
2024-02-03T05:45:36.936Z,1.89
2024-02-03T05:51:39.365Z,2.38
2024-02-03T05:57:51.447Z,2.47
2024-02-03T06:03:56.380Z,2.58
2024-02-03T06:09:58.848Z,2.39
2024-02-03T06:16:02.239Z,2.51
2024-02-03T06:22:07.730Z,2.37
2024-02-03T06:28:12.204Z,2.37
2024-02-03T06:34:20.556Z,2.62
2024-02-03T06:40:29.566Z,2.80
2024-02-03T06:46:31.678Z,2.33
2024-02-03T06:52:40.173Z,3.06
2024-02-03T06:58:42.333Z,3.39
2024-02-03T07:04:48.177Z,2.75
2024-02-03T07:10:50.631Z,3.53
2024-02-03T07:16:53.058Z,3.36
2024-02-03T07:22:55.652Z,1.69
2024-02-03T07:29:01.995Z,3.83
2024-02-03T07:35:08.594Z,4.13
2024-02-03T07:41:11.190Z,4.22
2024-02-03T07:47:16.422Z,4.47
2024-02-03T07:53:18.621Z,4.54
2024-02-03T07:59:28.889Z,3.41
2024-02-03T08:05:31.923Z,4.64
2024-02-03T08:11:37.343Z,5.01
2024-02-03T08:17:41.836Z,5.22
2024-02-03T08:23:47.016Z,4.27
2024-02-03T08:29:49.969Z,3.59
2024-02-03T08:35:52.668Z,5.49
2024-02-03T08:41:57.679Z,5.76
2024-02-03T08:48:03.294Z,5.90
2024-02-03T08:54:06.780Z,6.23
2024-02-03T09:00:16.236Z,6.06
2024-02-03T09:06:22.865Z,5.95
2024-02-03T09:12:29.118Z,5.48
2024-02-03T09:18:34.754Z,5.97
2024-02-03T09:24:37.115Z,6.05
2024-02-03T09:30:39.526Z,6.28
2024-02-03T09:42:51.552Z,6.50
2024-02-03T09:48:57.219Z,6.86
2024-02-03T09:55:00.493Z,6.91
2024-02-03T10:01:02.895Z,6.77
2024-02-03T10:07:05.389Z,6.95
2024-02-03T10:13:17.824Z,7.11
2024-02-03T10:19:23.371Z,7.13
2024-02-03T10:25:36.158Z,7.25
2024-02-03T10:31:51.361Z,6.69
2024-02-03T10:37:53.723Z,7.68
2024-02-03T10:44:03.281Z,7.94
2024-02-03T10:50:11.794Z,7.26
2024-02-03T10:56:22.108Z,7.80
2024-02-03T11:02:29.696Z,8.43
2024-02-03T11:08:35.334Z,8.08
2024-02-03T11:14:40.661Z,8.23
2024-02-03T11:20:43.110Z,8.24
2024-02-03T11:27:06.652Z,8.20
2024-02-03T11:33:10.207Z,8.19
2024-02-03T11:39:16.656Z,8.13
2024-02-03T11:45:26.161Z,8.14
2024-02-03T11:51:29.595Z,8.17
2024-02-03T11:57:32.038Z,8.36
2024-02-03T12:03:35.532Z,8.11
2024-02-03T12:09:38.058Z,8.84
2024-02-03T12:15:40.438Z,8.82
2024-02-03T12:21:43.067Z,9.02
2024-02-03T12:27:46.489Z,9.09
2024-02-03T12:33:51.867Z,8.87
2024-02-03T12:39:54.410Z,9.03
2024-02-03T12:46:01.882Z,9.18
2024-02-03T12:52:10.249Z,8.75
2024-02-03T12:58:12.723Z,9.23
2024-02-03T13:04:25.710Z,9.29
2024-02-03T13:10:31.785Z,9.18
2024-02-03T13:16:36.223Z,9.29
2024-02-03T13:22:40.725Z,8.94
2024-02-03T13:28:47.756Z,9.18
2024-02-03T13:35:01.899Z,9.17
2024-02-03T13:41:05.271Z,9.20
2024-02-03T13:47:07.619Z,8.41
2024-02-03T13:53:11.116Z,9.08
2024-02-03T13:59:13.529Z,7.90
2024-02-03T14:05:21.463Z,9.04
2024-02-03T14:11:41.344Z,8.87
2024-02-03T14:17:52.111Z,8.90
2024-02-03T14:23:54.487Z,8.80
2024-02-03T14:30:01.079Z,8.82
2024-02-03T14:36:03.482Z,8.79
2024-02-03T14:42:06.927Z,8.80
2024-02-03T14:48:09.390Z,8.42
2024-02-03T14:54:16.869Z,8.67
2024-02-03T15:00:27.352Z,8.68
2024-02-03T15:06:30.849Z,8.74
2024-02-03T15:12:36.290Z,8.63
2024-02-03T15:18:50.180Z,8.53
2024-02-03T15:24:53.292Z,8.65
2024-02-03T15:30:55.778Z,8.51
2024-02-03T15:37:05.648Z,8.42
2024-02-03T15:43:10.702Z,8.36
2024-02-03T15:49:13.255Z,7.94
2024-02-03T15:55:15.785Z,7.57
2024-02-03T16:01:26.220Z,7.47
2024-02-03T16:07:28.591Z,7.69
2024-02-03T16:13:30.961Z,8.18
2024-02-03T16:19:33.558Z,8.01
2024-02-03T16:25:36.952Z,8.13
2024-02-03T16:31:40.087Z,8.05
2024-02-03T16:37:42.828Z,8.29
2024-02-03T16:43:46.289Z,8.35
2024-02-03T16:49:51.915Z,8.33
2024-02-03T16:55:54.309Z,8.26
2024-02-03T17:01:59.927Z,8.21
2024-02-03T17:08:05.275Z,7.90
2024-02-03T17:14:16.782Z,8.02
2024-02-03T17:20:19.184Z,8.23
2024-02-03T17:26:21.662Z,8.21
2024-02-03T17:32:26.214Z,8.18
2024-02-03T17:38:31.640Z,8.15
2024-02-03T17:44:35.097Z,7.97
2024-02-03T17:50:37.514Z,8.06
2024-02-03T17:56:40.005Z,7.80
2024-02-03T18:02:44.157Z,8.03
2024-02-03T18:08:46.977Z,8.15
2024-02-03T18:14:49.400Z,7.64
2024-02-03T18:20:51.891Z,8.23
2024-02-03T18:26:55.344Z,7.90
2024-02-03T18:32:57.912Z,8.02
2024-02-03T18:39:00.274Z,8.28
2024-02-03T18:45:02.744Z,7.62
2024-02-03T18:51:05.235Z,7.50
2024-02-03T18:57:11.565Z,8.28
2024-02-03T19:03:13.597Z,8.14
2024-02-03T19:09:21.029Z,8.09
2024-02-03T19:15:24.211Z,7.33
2024-02-03T19:21:26.648Z,7.39
2024-02-03T19:27:30.089Z,7.03
2024-02-03T19:33:32.611Z,7.02
2024-02-03T19:39:34.920Z,7.10
2024-02-03T19:45:40.462Z,6.74
2024-02-03T19:51:45.941Z,7.06
2024-02-03T19:57:49.084Z,7.08
2024-02-03T20:03:53.841Z,7.13
2024-02-03T20:09:56.447Z,7.38
2024-02-03T20:15:58.869Z,7.73
2024-02-03T20:22:05.289Z,7.93
2024-02-03T20:28:07.796Z,8.10
2024-02-03T20:34:18.518Z,7.98
2024-02-03T20:40:20.818Z,7.62
2024-02-03T20:46:23.413Z,7.76
2024-02-03T20:52:25.705Z,8.01
2024-02-03T20:58:28.246Z,7.83
2024-02-03T21:04:30.733Z,8.12
2024-02-03T21:10:34.372Z,7.93
2024-02-03T21:16:37.650Z,8.22
2024-02-03T21:22:40.153Z,8.06
2024-02-03T21:28:42.515Z,8.00
2024-02-03T21:34:46.003Z,7.43
2024-02-03T21:40:48.446Z,8.00
2024-02-03T21:46:52.104Z,8.02
2024-02-03T21:52:56.319Z,7.76
2024-02-03T21:59:01.228Z,7.89
2024-02-03T22:05:04.315Z,7.86
2024-02-03T22:11:06.478Z,7.57
2024-02-03T22:17:09.192Z,7.61
2024-02-03T22:23:11.647Z,7.73
2024-02-03T22:29:19.936Z,7.72
2024-02-03T22:35:34.644Z,7.98
2024-02-03T22:41:37.106Z,6.50
2024-02-03T22:47:39.707Z,7.82
2024-02-03T22:53:41.981Z,7.80
2024-02-03T22:59:47.539Z,7.71
2024-02-03T23:05:50.083Z,7.53
2024-02-03T23:11:53.478Z,7.11
2024-02-03T23:17:58.154Z,7.32
2024-02-03T23:24:01.402Z,7.59
2024-02-03T23:30:05.903Z,7.30
2024-02-03T23:36:10.420Z,6.99
2024-02-03T23:42:12.862Z,6.57
2024-02-03T23:48:18.367Z,7.39
2024-02-03T23:54:20.847Z,7.59
